Time;durP1;ratioP1;P1;durP2;ratioP2;P2;SDS_P1;SDS_P2;PMS_P1;PMS_P2;Temp;Humidity;BMP_temperature;BMP_pressure;BME280_temperature;BME280_humidity;BME280_pressure;Samples;Min_cycle;Max_cycle;Signal;HPM_P1;HPM_P2
2023/10/10 00:01:17;;;;;;;7.83;3.03;;;12.80;99.90;;;;;;5010286;28;20759;-62
2023/10/10 00:03:45;;;;;;;4.93;2.63;;;12.70;99.90;;;;;;5010819;28;20462;-62
2023/10/10 00:06:13;;;;;;;7.30;2.30;;;12.80;99.90;;;;;;5006366;28;20865;-62
2023/10/10 00:08:40;;;;;;;7.13;3.20;;;12.60;99.90;;;;;;5010806;28;21256;-62
2023/10/10 00:11:10;;;;;;;7.70;2.70;;;12.70;99.90;;;;;;5007223;28;20503;-63
2023/10/10 00:13:42;;;;;;;6.40;2.53;;;12.50;99.90;;;;;;5011003;28;20429;-62
2023/10/10 00:16:37;;;;;;;17.53;2.57;;;12.50;99.90;;;;;;5004854;28;20485;-62
2023/10/10 00:21:50;;;;;;;7.20;3.00;;;12.50;99.90;;;;;;5008607;28;20409;-62
2023/10/10 00:24:20;;;;;;;17.10;3.37;;;12.40;99.90;;;;;;5008563;28;20476;-62
2023/10/10 00:26:47;;;;;;;3.80;1.80;;;12.30;99.90;;;;;;5007485;28;20467;-62
2023/10/10 00:29:13;;;;;;;8.40;3.37;;;12.30;99.90;;;;;;5008658;28;20473;-62
2023/10/10 00:31:43;;;;;;;13.77;2.70;;;12.30;99.90;;;;;;5005323;28;21110;-62
2023/10/10 00:34:09;;;;;;;16.73;3.30;;;12.20;99.90;;;;;;5001374;28;20194;-62
2023/10/10 00:36:35;;;;;;;9.50;2.23;;;12.20;99.90;;;;;;5006407;28;20974;-62
2023/10/10 00:42:19;;;;;;;13.67;2.00;;;12.10;99.90;;;;;;5007709;28;20898;-62
2023/10/10 00:44:28;;;;;;;7.40;2.80;;;12.10;99.90;;;;;;5001623;28;20872;-62
2023/10/10 00:46:57;;;;;;;7.53;2.30;;;12.00;99.90;;;;;;5009742;28;20429;-63
2023/10/10 00:49:31;;;;;;;18.17;3.90;;;12.00;99.90;;;;;;5008118;28;20179;-62
2023/10/10 00:52:01;;;;;;;13.47;2.93;;;12.00;99.90;;;;;;5010021;28;20430;-63
2023/10/10 00:54:31;;;;;;;8.60;2.77;;;12.00;99.90;;;;;;5008611;28;20433;-62
2023/10/10 00:56:59;;;;;;;12.13;4.10;;;11.90;99.90;;;;;;5009971;28;20499;-63
2023/10/10 00:59:34;;;;;;;14.83;3.73;;;12.00;99.90;;;;;;5008374;28;20430;-62
2023/10/10 01:02:02;;;;;;;10.17;2.70;;;11.90;99.90;;;;;;5009327;28;20418;-62
2023/10/10 01:07:18;;;;;;;16.73;3.20;;;12.00;99.90;;;;;;5004558;28;20408;-62
2023/10/10 01:09:52;;;;;;;12.03;3.07;;;12.00;99.90;;;;;;5009656;28;20781;-62
2023/10/10 01:12:17;;;;;;;11.37;3.00;;;12.00;99.90;;;;;;5010478;28;20413;-62
2023/10/10 01:14:43;;;;;;;11.83;2.77;;;11.90;99.90;;;;;;5004468;28;20431;-62
2023/10/10 01:17:12;;;;;;;13.03;2.73;;;12.10;99.90;;;;;;5006205;28;20269;-62
2023/10/10 01:19:38;;;;;;;16.07;3.33;;;12.10;99.90;;;;;;5004925;28;20423;-62
2023/10/10 01:22:10;;;;;;;20.00;3.17;;;12.00;99.90;;;;;;5009393;28;20414;-62
2023/10/10 01:24:35;;;;;;;13.33;2.77;;;12.10;99.90;;;;;;5004965;28;20583;-62
2023/10/10 01:27:13;;;;;;;12.77;3.57;;;12.10;99.90;;;;;;5009022;28;20415;-62
2023/10/10 01:29:49;;;;;;;8.70;3.43;;;12.10;99.90;;;;;;5005817;28;20631;-62
2023/10/10 01:32:17;;;;;;;17.53;2.53;;;12.10;99.90;;;;;;5009698;28;20410;-62
2023/10/10 01:34:45;;;;;;;6.43;3.10;;;12.10;99.90;;;;;;5005628;28;20478;-62
2023/10/10 01:37:14;;;;;;;8.60;3.00;;;12.00;99.90;;;;;;5009991;28;20584;-62
2023/10/10 01:42:53;;;;;;;18.73;2.80;;;12.00;99.90;;;;;;5007515;28;20405;-62
2023/10/10 01:45:20;;;;;;;14.73;3.90;;;12.00;99.90;;;;;;5012615;28;20432;-62
2023/10/10 01:48:08;;;;;;;12.17;3.53;;;11.90;99.90;;;;;;5013169;28;20444;-63
2023/10/10 01:50:34;;;;;;;6.80;2.13;;;11.90;99.90;;;;;;5009810;28;20942;-62
2023/10/10 01:53:00;;;;;;;9.10;2.20;;;11.90;99.90;;;;;;5013317;28;20425;-62
2023/10/10 01:55:26;;;;;;;6.77;1.93;;;12.00;99.90;;;;;;5010345;28;20465;-62
2023/10/10 01:58:01;;;;;;;13.30;3.80;;;11.90;99.90;;;;;;5013002;28;20414;-62
2023/10/10 02:00:27;;;;;;;8.43;2.23;;;11.90;99.90;;;;;;5011810;28;20453;-62
2023/10/10 02:02:55;;;;;;;8.90;2.07;;;11.90;99.90;;;;;;5012731;28;20924;-62
2023/10/10 02:05:32;;;;;;;5.97;2.40;;;11.90;99.90;;;;;;5010499;28;20438;-62
2023/10/10 02:07:58;;;;;;;8.63;2.60;;;12.00;99.90;;;;;;5013015;28;20421;-62
2023/10/10 02:10:29;;;;;;;7.20;2.33;;;11.90;99.90;;;;;;5008105;28;20465;-62
2023/10/10 02:12:59;;;;;;;16.40;3.17;;;11.80;99.90;;;;;;5013070;28;20508;-62
2023/10/10 02:15:32;;;;;;;13.53;3.70;;;11.80;99.90;;;;;;5007530;28;20492;-62
2023/10/10 02:18:04;;;;;;;12.87;3.13;;;11.90;99.90;;;;;;5012619;28;20434;-62
2023/10/10 02:23:09;;;;;;;8.77;3.23;;;11.70;99.90;;;;;;5013200;28;20521;-63
2023/10/10 02:28:04;;;;;;;5.77;2.53;;;11.60;99.90;;;;;;5012780;28;20481;-62
2023/10/10 02:35:56;;;;;;;7.27;2.73;;;11.70;99.90;;;;;;5008699;28;20458;-62
2023/10/10 02:38:40;;;;;;;18.90;3.20;;;11.60;99.90;;;;;;5012334;28;20426;-62
2023/10/10 02:44:09;;;;;;;6.07;2.30;;;11.60;99.90;;;;;;5006482;28;20441;-62
2023/10/10 02:46:40;;;;;;;6.70;2.50;;;11.60;99.90;;;;;;5005527;28;20491;-61
2023/10/10 02:49:22;;;;;;;12.33;2.83;;;11.60;99.90;;;;;;5009081;28;20426;-61
2023/10/10 02:51:48;;;;;;;14.73;2.93;;;11.60;99.90;;;;;;5009737;28;20425;-61
2023/10/10 02:56:56;;;;;;;11.00;2.60;;;11.50;99.90;;;;;;5012183;28;20500;-61
2023/10/10 02:59:31;;;;;;;12.27;2.70;;;11.50;99.90;;;;;;5009722;28;20465;-61
2023/10/10 03:01:59;;;;;;;13.47;2.70;;;11.50;99.90;;;;;;5011817;28;20417;-61
2023/10/10 03:07:10;;;;;;;8.87;3.20;;;11.50;99.90;;;;;;5006262;28;20505;-61
2023/10/10 03:10:06;;;;;;;13.00;3.13;;;11.50;99.90;;;;;;5008090;28;20996;-61
2023/10/10 03:12:29;;;;;;;11.80;4.13;;;11.50;99.90;;;;;;5009752;28;21096;-61
2023/10/10 03:15:00;;;;;;;13.93;2.83;;;11.50;99.90;;;;;;5008813;28;20891;-61
2023/10/10 03:17:31;;;;;;;11.37;3.90;;;11.50;99.90;;;;;;5011453;28;20444;-63
2023/10/10 03:23:10;;;;;;;8.40;2.57;;;11.60;99.90;;;;;;5000557;28;20407;-64
2023/10/10 03:28:32;;;;;;;13.17;4.47;;;11.70;99.90;;;;;;4996274;28;20426;-61
2023/10/10 03:31:22;;;;;;;9.83;2.47;;;11.70;99.90;;;;;;5007724;28;20433;-62
2023/10/10 03:34:03;;;;;;;19.50;3.10;;;11.80;99.90;;;;;;5005604;28;20866;-61
2023/10/10 03:36:43;;;;;;;10.43;2.23;;;11.90;99.90;;;;;;5010457;28;20472;-61
2023/10/10 03:39:42;;;;;;;8.50;3.23;;;11.80;99.90;;;;;;5004403;28;20529;-62
2023/10/10 05:23:34;;;;;;;15.23;3.80;;;11.30;99.90;;;;;;5009676;28;21020;-63
2023/10/10 05:26:02;;;;;;;11.13;3.30;;;11.40;99.90;;;;;;5010577;28;20432;-63
2023/10/10 05:28:32;;;;;;;8.03;3.17;;;11.40;99.90;;;;;;5013995;28;20509;-63
2023/10/10 05:30:59;;;;;;;15.10;2.77;;;11.30;99.90;;;;;;5011000;28;20945;-63
2023/10/10 05:33:26;;;;;;;7.03;3.13;;;11.30;99.90;;;;;;5010316;28;20421;-63
2023/10/10 05:35:59;;;;;;;8.23;2.87;;;11.30;99.90;;;;;;5010903;28;20465;-63
2023/10/10 05:38:25;;;;;;;12.37;3.20;;;11.40;99.90;;;;;;5012308;28;20413;-63
2023/10/10 05:40:51;;;;;;;14.10;3.40;;;11.30;99.90;;;;;;5011501;28;20900;-63
2023/10/10 05:43:17;;;;;;;8.10;3.37;;;11.20;99.90;;;;;;5012414;28;20179;-63
2023/10/10 05:45:43;;;;;;;6.20;2.70;;;11.10;99.90;;;;;;5009426;28;20221;-63
2023/10/10 05:48:10;;;;;;;5.80;3.03;;;11.10;99.90;;;;;;5013502;28;20779;-63
2023/10/10 05:50:37;;;;;;;16.43;3.93;;;11.00;99.90;;;;;;5010062;28;20457;-63
2023/10/10 05:53:06;;;;;;;11.20;3.13;;;10.90;99.90;;;;;;5012266;28;20424;-63
2023/10/10 05:55:33;;;;;;;8.43;2.90;;;10.90;99.90;;;;;;5010104;28;21028;-63
2023/10/10 05:58:02;;;;;;;11.37;2.93;;;10.90;99.90;;;;;;5011828;28;20429;-63
2023/10/10 06:00:37;;;;;;;12.47;3.50;;;10.80;99.90;;;;;;5006948;28;20421;-63
2023/10/10 06:03:06;;;;;;;15.30;3.87;;;10.80;99.90;;;;;;5010732;28;20538;-63
2023/10/10 06:05:33;;;;;;;10.90;2.83;;;10.80;99.90;;;;;;5008851;28;20462;-63
2023/10/10 06:07:59;;;;;;;16.33;4.30;;;10.80;99.90;;;;;;5011737;28;20445;-63
2023/10/10 06:10:31;;;;;;;18.80;3.00;;;10.80;99.90;;;;;;5011653;28;20428;-61
2023/10/10 06:12:57;;;;;;;6.07;2.40;;;10.80;99.90;;;;;;5011536;28;20434;-61
2023/10/10 06:15:23;;;;;;;9.47;2.47;;;10.90;99.90;;;;;;5009542;28;20516;-61
2023/10/10 06:17:49;;;;;;;10.87;2.80;;;11.00;99.90;;;;;;5011497;28;20545;-62
2023/10/10 06:20:24;;;;;;;7.03;3.53;;;11.10;99.90;;;;;;5008970;28;20651;-61
2023/10/10 06:22:54;;;;;;;4.60;2.53;;;11.10;99.90;;;;;;5011439;28;20436;-62
2023/10/10 06:25:21;;;;;;;8.40;3.13;;;11.20;99.90;;;;;;5004068;28;20934;-61
2023/10/10 06:27:54;;;;;;;9.50;3.30;;;11.30;99.90;;;;;;5011777;28;20727;-62
2023/10/10 06:30:24;;;;;;;9.27;3.60;;;11.40;99.90;;;;;;5005566;28;20501;-61
2023/10/10 06:32:50;;;;;;;9.23;3.80;;;11.50;99.90;;;;;;5010536;28;20456;-61
2023/10/10 06:37:51;;;;;;;10.53;3.23;;;11.80;99.90;;;;;;5011395;28;20430;-62
2023/10/10 06:40:24;;;;;;;16.40;3.07;;;11.70;99.90;;;;;;5002935;28;20422;-63
2023/10/10 06:42:55;;;;;;;12.70;2.83;;;11.80;99.90;;;;;;5011177;28;20425;-61
2023/10/10 06:45:24;;;;;;;11.93;2.60;;;11.90;99.90;;;;;;5008439;28;20422;-62
2023/10/10 06:47:54;;;;;;;8.60;3.23;;;12.00;99.90;;;;;;5010524;28;20418;-62
2023/10/10 06:50:22;;;;;;;11.00;2.80;;;12.10;99.90;;;;;;5008570;28;20445;-62
2023/10/10 06:52:52;;;;;;;17.03;3.83;;;12.20;99.90;;;;;;5011083;28;20504;-62
2023/10/10 06:55:23;;;;;;;7.27;3.37;;;12.40;99.90;;;;;;5009350;28;20449;-62
2023/10/10 06:58:01;;;;;;;16.63;4.53;;;12.50;99.90;;;;;;5010739;28;20421;-62
2023/10/10 07:00:37;;;;;;;19.93;3.63;;;12.60;99.90;;;;;;5006006;28;20457;-62
2023/10/10 07:03:03;;;;;;;11.00;3.50;;;12.80;99.90;;;;;;5009122;28;20421;-62
2023/10/10 07:05:33;;;;;;;8.03;2.50;;;13.00;99.90;;;;;;5007667;28;20434;-62
2023/10/10 07:07:59;;;;;;;26.90;2.63;;;13.00;99.90;;;;;;5010504;28;20183;-62
2023/10/10 07:10:32;;;;;;;13.87;2.77;;;13.20;99.90;;;;;;5006292;28;20433;-62
2023/10/10 07:12:59;;;;;;;6.93;2.07;;;13.30;99.90;;;;;;5010465;28;20941;-62
2023/10/10 07:15:34;;;;;;;6.27;2.43;;;13.40;99.90;;;;;;5007449;28;20481;-62
2023/10/10 07:18:15;;;;;;;5.60;2.00;;;13.60;99.90;;;;;;5010035;28;20469;-62
2023/10/10 07:23:37;;;;;;;11.70;2.90;;;13.80;99.90;;;;;;5006109;28;20513;-62
2023/10/10 07:26:05;;;;;;;5.23;2.90;;;13.90;99.90;;;;;;5006923;28;20433;-62
2023/10/10 07:28:47;;;;;;;32.37;3.20;;;14.10;99.90;;;;;;5010066;28;20472;-62
2023/10/10 07:31:17;;;;;;;10.67;2.80;;;14.30;99.90;;;;;;5007158;28;20441;-63
2023/10/10 07:33:54;;;;;;;8.77;3.27;;;14.50;99.90;;;;;;5009684;28;20476;-63
2023/10/10 07:36:24;;;;;;;15.37;3.07;;;14.70;99.90;;;;;;5006601;28;20457;-62
2023/10/10 07:38:54;;;;;;;12.50;3.93;;;15.10;99.90;;;;;;5009487;28;20490;-62
2023/10/10 07:41:27;;;;;;;15.73;3.53;;;15.30;99.90;;;;;;5007681;28;20964;-62
2023/10/10 07:43:58;;;;;;;8.17;2.83;;;15.50;99.90;;;;;;5009697;28;20442;-62
2023/10/10 07:46:27;;;;;;;15.90;2.83;;;15.90;99.90;;;;;;5008048;28;20795;-62
2023/10/10 07:48:56;;;;;;;7.80;2.47;;;16.20;99.90;;;;;;5010161;28;20477;-62
2023/10/10 07:51:28;;;;;;;14.33;3.53;;;16.70;99.90;;;;;;5008354;28;20414;-62
2023/10/10 07:54:12;;;;;;;13.23;3.77;;;17.30;99.90;;;;;;5009374;28;20491;-62
2023/10/10 07:56:45;;;;;;;8.40;2.17;;;17.70;99.90;;;;;;5006844;28;20458;-62
2023/10/10 07:59:12;;;;;;;8.70;2.63;;;17.90;99.90;;;;;;5004161;28;20426;-62
2023/10/10 08:01:40;;;;;;;15.47;3.27;;;18.20;99.90;;;;;;5006651;28;20430;-62
2023/10/10 08:04:06;;;;;;;10.80;3.13;;;18.40;99.90;;;;;;5010527;28;20496;-63
2023/10/10 08:06:33;;;;;;;9.47;2.70;;;18.50;99.70;;;;;;5006639;28;20430;-62
2023/10/10 08:11:37;;;;;;;10.87;2.37;;;18.80;98.60;;;;;;5007056;28;20414;-62
2023/10/10 08:14:07;;;;;;;21.43;2.70;;;19.10;97.70;;;;;;5009164;28;20427;-62
2023/10/10 08:16:39;;;;;;;14.40;2.77;;;19.10;98.60;;;;;;5009322;28;20479;-63
2023/10/10 08:19:07;;;;;;;12.33;2.57;;;19.20;98.40;;;;;;5008806;28;20436;-62
2023/10/10 08:21:55;;;;;;;10.30;3.23;;;19.20;98.00;;;;;;5010264;28;20425;-62
2023/10/10 08:24:19;;;;;;;12.20;3.00;;;19.10;98.20;;;;;;5000842;28;20450;-62
2023/10/10 08:26:45;;;;;;;7.37;2.60;;;19.00;98.80;;;;;;5010349;28;20523;-62
2023/10/10 08:29:12;;;;;;;13.83;2.90;;;19.30;97.90;;;;;;5007626;28;20704;-62
2023/10/10 08:31:43;;;;;;;8.17;2.40;;;19.60;98.00;;;;;;5006238;28;20207;-63
2023/10/10 08:34:09;;;;;;;10.83;3.47;;;20.00;97.50;;;;;;5010039;28;20572;-63
2023/10/10 08:36:37;;;;;;;14.90;2.67;;;20.50;96.00;;;;;;5007070;28;21029;-63
2023/10/10 08:41:42;;;;;;;5.77;2.57;;;20.80;95.70;;;;;;5009458;28;20417;-63
2023/10/10 08:44:09;;;;;;;18.30;3.40;;;21.00;95.70;;;;;;5007809;28;20429;-63
2023/10/10 08:46:46;;;;;;;26.83;3.80;;;21.30;95.00;;;;;;5008752;28;21209;-63
2023/10/10 08:49:13;;;;;;;9.37;3.00;;;21.50;94.80;;;;;;5003207;28;20431;-63
2023/10/10 08:51:39;;;;;;;8.00;3.37;;;21.70;94.30;;;;;;5009593;28;20989;-63
2023/10/10 08:54:09;;;;;;;7.60;2.80;;;21.50;94.80;;;;;;5008331;28;20441;-63
2023/10/10 08:56:43;;;;;;;31.57;3.00;;;21.80;94.20;;;;;;5005523;28;20544;-63
2023/10/10 08:59:10;;;;;;;10.07;3.10;;;21.90;93.90;;;;;;5009183;28;20921;-63
2023/10/10 09:01:37;;;;;;;15.13;2.50;;;21.80;93.90;;;;;;5005646;28;21197;-63
2023/10/10 09:04:03;;;;;;;5.50;2.10;;;21.70;94.30;;;;;;5010098;28;20569;-63
2023/10/10 09:06:58;;;;;;;9.27;3.10;;;21.50;93.70;;;;;;5006181;28;20455;-63
2023/10/10 09:09:33;;;;;;;14.23;2.00;;;21.60;93.90;;;;;;5007966;28;20889;-63
2023/10/10 09:12:02;;;;;;;26.73;3.53;;;21.10;94.90;;;;;;5008934;28;20436;-63
2023/10/10 09:14:52;;;;;;;10.70;2.17;;;21.20;94.30;;;;;;5005096;28;20528;-63
2023/10/10 09:17:29;;;;;;;10.67;3.13;;;21.00;95.30;;;;;;5007343;28;20951;-63
2023/10/10 09:20:00;;;;;;;5.97;2.97;;;20.90;95.20;;;;;;4996224;28;20517;-63
2023/10/10 09:22:42;;;;;;;8.40;3.07;;;20.90;95.10;;;;;;5009881;28;21201;-63
2023/10/10 09:25:18;;;;;;;11.87;3.40;;;20.90;95.20;;;;;;5002625;28;20426;-62
2023/10/10 09:28:03;;;;;;;17.23;2.60;;;20.80;95.30;;;;;;5005695;28;20437;-63
2023/10/10 09:30:34;;;;;;;13.80;3.00;;;20.70;96.00;;;;;;5002807;28;20461;-63
2023/10/10 09:33:13;;;;;;;13.70;3.57;;;20.60;95.50;;;;;;5008600;28;20493;-63
2023/10/10 09:35:48;;;;;;;18.13;4.20;;;20.50;95.60;;;;;;5002753;28;20465;-63
2023/10/10 09:38:19;;;;;;;18.60;3.10;;;20.40;95.90;;;;;;5006101;28;20893;-63
2023/10/10 09:40:48;;;;;;;19.87;3.80;;;20.50;96.00;;;;;;5006670;28;20425;-63
2023/10/10 09:43:24;;;;;;;18.30;2.80;;;20.60;95.20;;;;;;5007341;28;20488;-63
2023/10/10 09:46:10;;;;;;;6.73;2.27;;;20.60;95.30;;;;;;5005079;28;20429;-63
2023/10/10 09:53:56;;;;;;;19.93;3.13;;;20.80;94.70;;;;;;5006446;28;20413;-63
2023/10/10 09:56:22;;;;;;;14.70;3.00;;;20.80;94.90;;;;;;5007569;28;20469;-63
2023/10/10 09:58:53;;;;;;;9.30;2.60;;;20.80;94.80;;;;;;5009253;28;20863;-63
2023/10/10 10:01:22;;;;;;;4.73;2.17;;;20.70;95.10;;;;;;5001937;28;20852;-63
2023/10/10 10:04:00;;;;;;;9.83;2.53;;;20.90;94.90;;;;;;5009667;28;20890;-63
2023/10/10 10:06:52;;;;;;;18.67;2.67;;;21.10;94.80;;;;;;5007178;28;21093;-63
2023/10/10 10:09:45;;;;;;;14.80;3.40;;;21.10;94.50;;;;;;5010885;28;20466;-63
2023/10/10 10:12:36;;;;;;;7.80;1.90;;;21.20;95.00;;;;;;5013277;28;20413;-63
2023/10/10 10:15:12;;;;;;;7.60;3.10;;;21.30;94.40;;;;;;5006278;28;20868;-63
2023/10/10 10:17:53;;;;;;;11.63;3.23;;;21.30;94.70;;;;;;5012659;28;20441;-63
2023/10/10 10:20:46;;;;;;;9.20;2.67;;;21.50;94.60;;;;;;5004634;28;20425;-63
2023/10/10 10:23:45;;;;;;;12.90;2.50;;;21.60;94.20;;;;;;5007148;28;20406;-63
2023/10/10 10:26:11;;;;;;;9.53;2.43;;;21.70;93.70;;;;;;5008662;28;20429;-63
2023/10/10 10:28:41;;;;;;;11.10;2.40;;;21.70;94.10;;;;;;5007489;28;20448;-63
2023/10/10 10:31:28;;;;;;;7.17;2.70;;;21.70;94.00;;;;;;5008485;28;20449;-63
2023/10/10 10:34:05;;;;;;;7.80;2.63;;;21.70;94.30;;;;;;5012132;28;20510;-63
2023/10/10 10:37:06;;;;;;;6.83;2.80;;;21.90;93.50;;;;;;5012009;28;20553;-63
2023/10/10 10:39:37;;;;;;;9.30;3.17;;;22.00;93.90;;;;;;5003723;28;20437;-63
2023/10/10 10:42:11;;;;;;;7.10;3.37;;;22.00;94.00;;;;;;5012841;28;20464;-63
2023/10/10 10:44:59;;;;;;;7.17;2.50;;;22.00;94.00;;;;;;5010765;28;20457;-63
2023/10/10 10:47:39;;;;;;;20.00;3.20;;;22.00;93.50;;;;;;5005802;28;20421;-63
2023/10/10 10:50:18;;;;;;;6.60;2.37;;;21.90;93.80;;;;;;5008269;28;20751;-63
2023/10/10 10:52:56;;;;;;;13.47;3.37;;;21.90;94.20;;;;;;5007319;28;20437;-63
2023/10/10 10:55:29;;;;;;;6.70;2.50;;;22.20;94.00;;;;;;5003646;28;20425;-63
2023/10/10 11:01:28;;;;;;;4.93;2.00;;;22.40;92.60;;;;;;5006444;28;20448;-63
2023/10/10 11:03:36;;;;;;;6.63;2.30;;;22.40;92.50;;;;;;5004505;28;20428;-63
2023/10/10 11:06:09;;;;;;;10.83;2.40;;;22.50;92.80;;;;;;5006001;28;20437;-63
2023/10/10 11:09:24;;;;;;;9.23;2.47;;;22.70;93.30;;;;;;5011079;28;20454;-63
2023/10/10 11:14:29;;;;;;;18.03;3.37;;;22.80;92.20;;;;;;5007894;28;20426;-63
2023/10/10 11:16:57;;;;;;;18.03;4.17;;;23.00;92.50;;;;;;5003904;28;21341;-63
2023/10/10 11:19:38;;;;;;;;;;;;;;;;;;;;;
2023/10/10 11:21:56;;;;;;;9.70;3.00;;;23.10;90.20;;;;;;5008922;28;20436;-63
2023/10/10 11:24:26;;;;;;;19.43;2.90;;;23.10;89.00;;;;;;5006873;28;20426;-63
2023/10/10 11:29:42;;;;;;;16.53;2.70;;;23.00;90.10;;;;;;5004934;28;20430;-63
2023/10/10 11:32:11;;;;;;;13.57;3.13;;;23.10;89.20;;;;;;5009698;28;20829;-63
2023/10/10 11:34:44;;;;;;;14.63;3.80;;;23.30;90.30;;;;;;5004254;28;20426;-63
2023/10/10 11:37:17;;;;;;;17.20;3.60;;;23.20;90.30;;;;;;5010414;28;20556;-63
2023/10/10 11:39:57;;;;;;;7.50;2.90;;;23.20;90.00;;;;;;5007690;28;20429;-63
2023/10/10 11:42:33;;;;;;;36.03;3.63;;;23.30;90.60;;;;;;5003864;28;20479;-63
2023/10/10 11:45:02;;;;;;;7.13;3.37;;;23.20;90.40;;;;;;5005765;28;20785;-63
2023/10/10 11:47:28;;;;;;;9.83;2.40;;;23.40;90.10;;;;;;5010033;28;20424;-63
2023/10/10 11:50:01;;;;;;;19.00;2.33;;;23.40;90.90;;;;;;5007454;28;20448;-63
2023/10/10 11:52:29;;;;;;;13.10;2.93;;;23.40;90.10;;;;;;5010102;28;20453;-63
2023/10/10 11:54:58;;;;;;;12.90;3.23;;;23.30;90.00;;;;;;5007442;28;20435;-63
2023/10/10 11:57:28;;;;;;;12.20;2.40;;;23.40;90.20;;;;;;5009295;28;20468;-63
2023/10/10 12:00:06;;;;;;;24.67;3.27;;;23.50;90.70;;;;;;5008346;28;20421;-63
2023/10/10 12:02:39;;;;;;;4.73;2.23;;;23.70;90.70;;;;;;5008356;28;20430;-64
2023/10/10 12:05:35;;;;;;;19.60;3.60;;;23.80;90.20;;;;;;5004608;28;20429;-63
2023/10/10 12:07:53;;;;;;;10.03;3.33;;;24.00;90.90;;;;;;5009788;28;20409;-63
2023/10/10 12:10:24;;;;;;;9.40;2.50;;;23.90;91.80;;;;;;5005561;28;20929;-63
2023/10/10 12:12:53;;;;;;;19.47;3.27;;;24.00;90.10;;;;;;5009889;28;20846;-63
2023/10/10 12:15:22;;;;;;;8.97;2.70;;;24.20;90.60;;;;;;5001851;28;20413;-63
2023/10/10 12:17:48;;;;;;;9.63;2.77;;;24.30;90.20;;;;;;5008883;28;20531;-63
2023/10/10 12:20:16;;;;;;;10.23;2.90;;;24.40;90.20;;;;;;5002086;28;20540;-63
2023/10/10 12:22:41;;;;;;;7.87;2.40;;;24.40;90.20;;;;;;5009821;28;20212;-63
2023/10/10 12:25:13;;;;;;;12.07;3.50;;;24.40;89.50;;;;;;5002121;28;20426;-63
2023/10/10 12:27:46;;;;;;;6.67;3.40;;;24.20;87.60;;;;;;5009760;28;20185;-63
2023/10/10 12:30:13;;;;;;;13.43;2.97;;;24.30;88.50;;;;;;5001896;28;20509;-63
2023/10/10 12:32:38;;;;;;;9.90;3.40;;;24.50;88.60;;;;;;5008287;28;20508;-63
2023/10/10 12:35:05;;;;;;;6.63;2.60;;;24.10;89.10;;;;;;5000790;28;20516;-63
2023/10/10 12:37:36;;;;;;;13.53;2.60;;;24.00;89.10;;;;;;5008728;28;20221;-63
2023/10/10 12:40:08;;;;;;;13.90;3.57;;;24.00;90.10;;;;;;5006231;28;20436;-63
2023/10/10 12:42:34;;;;;;;23.70;3.00;;;23.90;90.30;;;;;;5009107;28;20553;-63
2023/10/10 12:45:01;;;;;;;7.10;3.13;;;23.90;89.40;;;;;;5004422;28;20441;-63
2023/10/10 12:47:33;;;;;;;13.13;1.97;;;24.10;86.80;;;;;;5008561;28;20222;-63
2023/10/10 12:50:04;;;;;;;9.40;2.97;;;24.20;88.50;;;;;;5007367;28;20421;-63
2023/10/10 12:52:35;;;;;;;12.67;2.93;;;24.00;86.40;;;;;;5008576;28;20481;-63
2023/10/10 12:55:09;;;;;;;19.00;3.97;;;24.10;85.90;;;;;;5005269;28;20472;-63
2023/10/10 12:57:36;;;;;;;7.43;2.87;;;24.00;88.30;;;;;;5009099;28;20472;-63
2023/10/10 13:02:50;;;;;;;10.53;2.40;;;24.10;87.70;;;;;;5006476;28;20456;-63
2023/10/10 13:05:18;;;;;;;7.67;2.13;;;24.10;87.30;;;;;;5004034;28;20455;-63
2023/10/10 13:07:44;;;;;;;11.73;3.13;;;23.90;86.30;;;;;;5008843;28;20417;-63
2023/10/10 13:10:10;;;;;;;10.50;2.87;;;23.80;87.20;;;;;;5004236;28;20499;-63
2023/10/10 13:12:51;;;;;;;9.03;3.03;;;24.00;87.50;;;;;;5008876;28;20205;-63
2023/10/10 13:15:30;;;;;;;18.03;2.93;;;24.00;84.40;;;;;;5000320;28;20509;-63
2023/10/10 13:20:43;;;;;;;14.60;3.00;;;23.60;85.60;;;;;;5005698;28;20432;-63
2023/10/10 13:23:09;;;;;;;11.10;3.30;;;23.70;85.80;;;;;;5008822;28;20509;-63
2023/10/10 13:25:37;;;;;;;13.53;3.10;;;23.60;87.20;;;;;;5005108;28;20529;-63
2023/10/10 13:28:09;;;;;;;11.30;3.17;;;23.50;87.50;;;;;;5008528;28;20179;-63
2023/10/10 13:30:38;;;;;;;5.93;2.90;;;23.50;87.40;;;;;;5003616;28;20417;-63
2023/10/10 13:33:06;;;;;;;14.67;4.07;;;23.50;87.30;;;;;;5008217;28;20417;-63
2023/10/10 13:35:32;;;;;;;27.50;4.17;;;23.50;87.50;;;;;;5004346;28;20417;-63
2023/10/10 13:37:58;;;;;;;13.57;2.80;;;23.40;86.70;;;;;;5008649;28;20500;-63
2023/10/10 13:40:23;;;;;;;13.80;3.70;;;23.40;86.80;;;;;;5010105;28;20520;-63
2023/10/10 13:42:49;;;;;;;20.03;3.63;;;23.40;87.20;;;;;;5012373;28;20637;-63
2023/10/10 13:45:21;;;;;;;13.03;3.33;;;23.40;87.10;;;;;;5010492;28;20943;-63
2023/10/10 13:47:48;;;;;;;11.70;3.67;;;23.40;86.90;;;;;;5012517;28;20194;-63
2023/10/10 13:50:40;;;;;;;4.03;2.47;;;23.40;89.60;;;;;;5004143;28;20449;-63
2023/10/10 13:53:07;;;;;;;12.37;3.03;;;23.40;86.90;;;;;;5012477;28;20496;-63
2023/10/10 13:55:38;;;;;;;14.13;4.40;;;23.40;86.90;;;;;;5010525;28;20417;-63
2023/10/10 13:58:07;;;;;;;6.97;2.37;;;23.40;86.60;;;;;;5012071;28;20421;-63
2023/10/10 14:00:35;;;;;;;8.60;3.17;;;23.30;87.20;;;;;;5006893;28;20425;-63
2023/10/10 14:03:03;;;;;;;11.30;3.47;;;23.30;86.00;;;;;;5011643;28;20421;-63
2023/10/10 14:05:32;;;;;;;11.63;2.70;;;23.30;86.80;;;;;;5006592;28;20551;-63
2023/10/10 14:07:58;;;;;;;9.57;3.30;;;23.30;89.40;;;;;;5011816;28;20418;-63
2023/10/10 14:10:23;;;;;;;8.97;3.57;;;23.30;89.60;;;;;;5007815;28;21139;-63
2023/10/10 14:12:50;;;;;;;22.70;3.40;;;23.30;89.80;;;;;;5012052;28;20259;-63
2023/10/10 14:15:18;;;;;;;9.40;2.40;;;23.20;89.30;;;;;;5006942;28;20281;-63
2023/10/10 14:17:49;;;;;;;6.40;2.60;;;23.20;89.50;;;;;;5011832;28;20803;-63
2023/10/10 14:20:21;;;;;;;5.90;2.23;;;23.20;89.60;;;;;;5002512;28;20448;-62
2023/10/10 14:22:49;;;;;;;16.50;2.97;;;23.20;90.40;;;;;;5012288;28;20449;-63
2023/10/10 14:25:16;;;;;;;9.60;3.20;;;23.20;90.60;;;;;;5003383;28;20417;-62
2023/10/10 14:27:43;;;;;;;12.93;3.20;;;23.30;85.20;;;;;;5012058;28;20520;-62
2023/10/10 14:30:21;;;;;;;7.23;2.97;;;23.40;85.10;;;;;;5006514;28;20440;-62
2023/10/10 14:32:57;;;;;;;12.47;4.37;;;23.50;83.30;;;;;;5011000;28;21125;-62
2023/10/10 14:35:23;;;;;;;18.97;3.70;;;23.50;83.30;;;;;;5007413;28;20925;-62
2023/10/10 14:37:55;;;;;;;8.70;2.60;;;23.60;81.70;;;;;;5011527;28;20512;-62
2023/10/10 14:40:23;;;;;;;32.90;3.73;;;23.70;79.10;;;;;;5008806;28;20417;-62
2023/10/10 14:42:52;;;;;;;12.63;4.10;;;23.60;79.30;;;;;;5011115;28;20422;-62
2023/10/10 14:45:28;;;;;;;9.70;3.10;;;23.50;79.10;;;;;;5009462;28;20508;-62
2023/10/10 14:47:55;;;;;;;12.93;3.07;;;23.50;80.50;;;;;;5012748;28;20413;-62
2023/10/10 14:50:24;;;;;;;5.10;2.50;;;23.40;81.80;;;;;;5008863;28;20425;-62
2023/10/10 14:52:51;;;;;;;10.03;2.93;;;23.30;78.50;;;;;;5011498;28;20479;-63
2023/10/10 14:55:27;;;;;;;9.00;3.67;;;23.20;80.10;;;;;;5009781;28;20421;-62
2023/10/10 14:57:54;;;;;;;4.70;2.27;;;23.10;78.50;;;;;;5010736;28;20432;-62
2023/10/10 15:00:25;;;;;;;11.20;3.60;;;23.00;81.30;;;;;;5006248;28;20532;-62
2023/10/10 15:02:53;;;;;;;6.57;2.80;;;23.00;81.90;;;;;;5010604;28;20441;-62
2023/10/10 15:05:21;;;;;;;14.67;3.37;;;23.00;79.00;;;;;;5006141;28;20480;-62
2023/10/10 15:07:47;;;;;;;14.60;3.23;;;23.00;79.60;;;;;;5011623;28;20806;-62
2023/10/10 15:10:13;;;;;;;8.30;3.33;;;23.00;81.40;;;;;;5006246;28;20429;-62
2023/10/10 15:12:38;;;;;;;16.00;3.43;;;23.00;86.50;;;;;;5010925;28;20187;-62
2023/10/10 15:15:04;;;;;;;8.73;3.40;;;22.80;86.20;;;;;;5005701;28;20425;-62
2023/10/10 15:17:30;;;;;;;8.13;2.93;;;22.80;81.40;;;;;;5010562;28;20272;-62
2023/10/10 15:19:56;;;;;;;9.77;3.20;;;22.80;80.80;;;;;;5005298;28;20845;-62
2023/10/10 15:22:21;;;;;;;14.47;3.33;;;22.70;84.20;;;;;;5010948;28;20187;-62
2023/10/10 15:24:50;;;;;;;5.43;2.30;;;22.60;82.00;;;;;;5005588;28;20283;-62
2023/10/10 15:27:17;;;;;;;7.57;3.10;;;22.50;83.30;;;;;;5010520;28;20178;-62
2023/10/10 15:29:43;;;;;;;13.90;3.60;;;22.40;85.00;;;;;;5005668;28;20513;-62
2023/10/10 15:32:09;;;;;;;9.07;3.53;;;22.30;86.50;;;;;;5012862;28;20536;-62
2023/10/10 15:34:34;;;;;;;9.20;3.60;;;22.10;89.80;;;;;;5007309;28;20195;-62
2023/10/10 15:37:02;;;;;;;9.23;2.90;;;22.00;90.20;;;;;;5011036;28;20465;-62
2023/10/10 15:39:29;;;;;;;7.90;2.67;;;21.90;87.00;;;;;;5008560;28;20340;-62
2023/10/10 15:41:55;;;;;;;16.47;2.73;;;21.80;90.00;;;;;;5011243;28;20418;-62
2023/10/10 15:44:22;;;;;;;9.93;3.10;;;21.70;91.30;;;;;;5009157;28;20536;-62
2023/10/10 15:46:53;;;;;;;5.67;2.87;;;21.60;91.30;;;;;;5007622;28;20178;-62
2023/10/10 15:49:20;;;;;;;14.00;2.90;;;21.50;91.00;;;;;;5005374;28;20437;-62
2023/10/10 15:51:45;;;;;;;12.10;3.53;;;21.40;92.00;;;;;;5010945;28;20426;-62